Time;durP1;ratioP1;P1;durP2;ratioP2;P2;SDS_P1;SDS_P2;PMS_P1;PMS_P2;Temp;Humidity;BMP_temperature;BMP_pressure;BME280_temperature;BME280_humidity;BME280_pressure;Samples;Min_cycle;Max_cycle;Signal;HPM_P1;HPM_P2
2021/09/04 00:01:30;;;;;;;;;;;13.90;99.90;;;;;;5089773;28;19917;-75
2021/09/04 00:03:55;;;;;;;;;;;13.80;99.90;;;;;;5086131;28;19916;-76
2021/09/04 00:06:21;;;;;;;;;;;13.80;99.90;;;;;;5090293;28;19965;-77
2021/09/04 00:08:46;;;;;;;;;;;13.80;99.90;;;;;;5086983;28;19931;-77
2021/09/04 00:11:12;;;;;;;;;;;13.80;99.90;;;;;;5071374;28;19931;-77
2021/09/04 00:13:37;;;;;;;;;;;13.80;99.90;;;;;;5084363;28;19920;-76
2021/09/04 00:16:03;;;;;;;;;;;13.70;99.90;;;;;;5082595;28;20242;-83
2021/09/04 00:18:31;;;;;;;;;;;13.70;99.90;;;;;;5084996;28;19966;-83
2021/09/04 00:20:57;;;;;;;;;;;13.70;99.90;;;;;;5085442;28;19999;-78
2021/09/04 00:23:22;;;;;;;;;;;13.60;99.90;;;;;;5081829;28;20375;-80
2021/09/04 00:25:48;;;;;;;;;;;13.60;99.90;;;;;;5086063;28;19917;-81
2021/09/04 00:28:13;;;;;;;;;;;13.60;99.90;;;;;;5088680;28;19923;-75
2021/09/04 00:30:39;;;;;;;;;;;13.50;99.90;;;;;;5085254;28;20315;-78
2021/09/04 00:33:04;;;;;;;;;;;13.50;99.90;;;;;;5081503;28;20273;-81
2021/09/04 00:35:30;;;;;;;;;;;13.50;99.90;;;;;;5067011;28;20004;-76
2021/09/04 00:37:55;;;;;;;;;;;13.50;99.90;;;;;;5082904;28;19927;-75
2021/09/04 00:40:21;;;;;;;;;;;13.50;99.90;;;;;;5080427;28;19916;-78
2021/09/04 00:42:47;;;;;;;;;;;13.50;99.90;;;;;;5069145;28;19915;-75
2021/09/04 00:45:12;;;;;;;;;;;13.40;99.90;;;;;;5067189;28;19924;-80
2021/09/04 00:47:56;;;;;;;;;;;13.40;99.90;;;;;;5081500;28;19981;-75
2021/09/04 00:50:22;;;;;;;;;;;13.40;99.90;;;;;;5084429;28;19917;-75
2021/09/04 00:52:48;;;;;;;;;;;13.40;99.90;;;;;;5070584;28;19945;-81
2021/09/04 00:55:13;;;;;;;;;;;13.40;99.90;;;;;;5082207;28;19924;-78
2021/09/04 00:57:39;;;;;;;;;;;13.30;99.90;;;;;;5083858;28;19912;-76
2021/09/04 01:00:04;;;;;;;;;;;13.30;99.90;;;;;;5088517;28;19959;-76
2021/09/04 01:02:30;;;;;;;;;;;13.30;99.90;;;;;;5088109;28;19920;-76
2021/09/04 01:04:56;;;;;;;;;;;13.30;99.90;;;;;;5079157;28;20027;-75
2021/09/04 01:07:21;;;;;;;;;;;13.30;99.90;;;;;;5078772;28;19974;-76
2021/09/04 01:09:47;;;;;;;;;;;13.20;99.90;;;;;;5082954;28;19909;-76
2021/09/04 01:12:13;;;;;;;;;;;13.30;99.90;;;;;;5085756;28;19931;-75
2021/09/04 01:14:39;;;;;;;;;;;13.30;99.90;;;;;;5084350;28;19916;-75
2021/09/04 01:17:05;;;;;;;;;;;13.20;99.90;;;;;;5081405;28;19999;-82
2021/09/04 01:19:31;;;;;;;;;;;13.20;99.90;;;;;;5069534;28;19919;-77
2021/09/04 01:21:57;;;;;;;;;;;13.20;99.90;;;;;;5075001;28;19912;-76
2021/09/04 01:24:23;;;;;;;;;;;13.20;99.90;;;;;;5067453;28;19939;-75
2021/09/04 01:26:49;;;;;;;;;;;13.20;99.90;;;;;;5066613;28;19913;-78
2021/09/04 01:29:14;;;;;;;;;;;13.20;99.90;;;;;;5080266;28;19968;-75
2021/09/04 01:31:40;;;;;;;;;;;13.30;99.90;;;;;;5084912;28;20348;-75
2021/09/04 01:34:06;;;;;;;;;;;13.30;99.90;;;;;;5079705;28;19920;-75
2021/09/04 01:36:36;;;;;;;;;;;13.30;99.90;;;;;;5073215;28;19914;-77
2021/09/04 01:39:03;;;;;;;;;;;13.30;99.90;;;;;;5069640;28;19919;-76
2021/09/04 01:41:29;;;;;;;;;;;13.30;99.90;;;;;;5055596;28;20279;-76
2021/09/04 01:43:55;;;;;;;;;;;13.40;99.90;;;;;;5080329;28;19993;-77
2021/09/04 01:46:20;;;;;;;;;;;13.40;99.90;;;;;;5068992;28;20394;-76
2021/09/04 01:48:46;;;;;;;;;;;13.50;99.90;;;;;;5081571;28;19920;-76
2021/09/04 01:51:12;;;;;;;;;;;13.50;99.90;;;;;;5060810;28;19924;-75
2021/09/04 01:53:39;;;;;;;;;;;13.50;99.90;;;;;;5077966;28;19912;-75
2021/09/04 01:56:04;;;;;;;;;;;13.60;99.90;;;;;;5079196;28;19916;-76
2021/09/04 01:58:32;;;;;;;;;;;13.60;99.90;;;;;;5089389;28;20450;-81
2021/09/04 02:00:58;;;;;;;;;;;13.60;99.90;;;;;;5084531;28;20339;-76
2021/09/04 02:03:23;;;;;;;;;;;13.60;99.90;;;;;;5090532;28;19969;-76
2021/09/04 02:05:49;;;;;;;;;;;13.70;99.90;;;;;;5082163;28;19916;-76
2021/09/04 02:08:15;;;;;;;;;;;13.70;99.90;;;;;;5070457;28;19916;-76
2021/09/04 02:10:40;;;;;;;;;;;13.70;99.90;;;;;;5076546;28;19916;-76
2021/09/04 02:13:06;;;;;;;;;;;13.70;99.90;;;;;;5064432;28;19947;-76
2021/09/04 02:15:31;;;;;;;;;;;13.70;99.90;;;;;;5081107;28;19908;-79
2021/09/04 02:17:57;;;;;;;;;;;13.70;99.90;;;;;;5083958;28;20006;-79
2021/09/04 02:20:22;;;;;;;;;;;13.70;99.90;;;;;;5068440;28;19924;-81
2021/09/04 02:22:48;;;;;;;;;;;13.70;99.90;;;;;;5087883;28;20382;-75
2021/09/04 02:25:14;;;;;;;;;;;13.70;99.90;;;;;;5087360;28;20330;-75
2021/09/04 02:27:39;;;;;;;;;;;13.80;99.90;;;;;;5075222;28;19920;-74
2021/09/04 02:30:06;;;;;;;;;;;13.70;99.90;;;;;;5074342;28;20294;-75
2021/09/04 02:32:32;;;;;;;;;;;13.70;99.90;;;;;;5073317;28;19916;-76
2021/09/04 02:34:58;;;;;;;;;;;13.70;99.90;;;;;;5069238;28;19934;-82
2021/09/04 02:37:23;;;;;;;;;;;13.70;99.90;;;;;;5085450;28;20265;-75
2021/09/04 02:39:49;;;;;;;;;;;13.70;99.90;;;;;;5079411;28;20307;-76
2021/09/04 02:42:15;;;;;;;;;;;13.70;99.90;;;;;;5093755;28;19919;-75
2021/09/04 02:44:41;;;;;;;;;;;13.70;99.90;;;;;;5062836;28;19912;-76
2021/09/04 02:47:06;;;;;;;;;;;13.70;99.90;;;;;;5088449;28;19977;-83
2021/09/04 02:49:32;;;;;;;;;;;13.70;99.90;;;;;;5083964;28;19957;-78
2021/09/04 02:51:57;;;;;;;;;;;13.70;99.90;;;;;;5064010;28;19961;-77
2021/09/04 02:54:23;;;;;;;;;;;13.70;99.90;;;;;;5067232;28;19923;-75
2021/09/04 02:56:48;;;;;;;;;;;13.70;99.90;;;;;;5078914;28;19924;-79
2021/09/04 02:59:14;;;;;;;;;;;13.70;99.90;;;;;;5083827;28;19922;-80
2021/09/04 03:01:39;;;;;;;;;;;13.60;99.90;;;;;;5088944;28;19991;-75
2021/09/04 03:04:05;;;;;;;;;;;13.60;99.90;;;;;;5092791;28;20329;-77
2021/09/04 03:06:31;;;;;;;;;;;13.60;99.90;;;;;;5064012;28;19991;-76
2021/09/04 03:08:56;;;;;;;;;;;13.60;99.90;;;;;;5084470;28;20028;-75
2021/09/04 03:11:22;;;;;;;;;;;13.60;99.90;;;;;;5083473;28;19977;-75
2021/09/04 03:13:48;;;;;;;;;;;13.60;99.90;;;;;;5085226;28;20467;-80
2021/09/04 03:16:14;;;;;;;;;;;13.60;99.90;;;;;;5081135;28;19912;-79
2021/09/04 03:18:39;;;;;;;;;;;13.70;99.90;;;;;;5086207;28;19912;-75
2021/09/04 03:21:05;;;;;;;;;;;13.70;99.90;;;;;;5082325;28;19916;-81
2021/09/04 03:23:30;;;;;;;;;;;13.70;99.90;;;;;;5086580;28;19939;-75
2021/09/04 03:25:56;;;;;;;;;;;13.70;99.90;;;;;;5083991;28;19966;-76
2021/09/04 03:28:21;;;;;;;;;;;13.80;99.90;;;;;;5081383;28;19943;-76
2021/09/04 03:30:47;;;;;;;;;;;13.80;99.90;;;;;;5084384;28;19908;-76
2021/09/04 03:33:12;;;;;;;;;;;13.80;99.90;;;;;;5084465;28;19955;-75
2021/09/04 03:35:38;;;;;;;;;;;13.80;99.90;;;;;;5083911;28;19912;-76
2021/09/04 03:38:04;;;;;;;;;;;13.90;99.90;;;;;;5080109;28;19950;-77
2021/09/04 03:40:29;;;;;;;;;;;13.90;99.90;;;;;;5084971;28;19916;-78
2021/09/04 03:42:55;;;;;;;;;;;13.90;99.90;;;;;;5080942;28;19911;-75
2021/09/04 03:45:20;;;;;;;;;;;13.90;99.90;;;;;;5079925;28;19912;-78
2021/09/04 03:47:46;;;;;;;;;;;13.90;99.90;;;;;;5086057;28;20315;-75
2021/09/04 03:50:12;;;;;;;;;;;13.90;99.90;;;;;;5082772;28;19912;-75
2021/09/04 03:52:37;;;;;;;;;;;13.90;99.90;;;;;;5085759;28;19924;-81
2021/09/04 03:55:03;;;;;;;;;;;13.90;99.90;;;;;;5081455;28;19913;-75
2021/09/04 03:57:30;;;;;;;;;;;13.90;99.90;;;;;;5085717;28;19927;-75
2021/09/04 03:59:55;;;;;;;;;;;13.90;99.90;;;;;;5065568;28;19916;-75
2021/09/04 04:02:21;;;;;;;;;;;13.90;99.90;;;;;;5079390;28;20188;-79
2021/09/04 04:04:46;;;;;;;;;;;13.90;99.90;;;;;;5086043;28;20253;-75
2021/09/04 04:07:12;;;;;;;;;;;13.90;99.90;;;;;;5086226;28;19919;-75
2021/09/04 04:09:38;;;;;;;;;;;13.90;99.90;;;;;;5085678;28;19912;-76
2021/09/04 04:12:04;;;;;;;;;;;13.90;99.90;;;;;;5068386;28;20520;-78
2021/09/04 04:14:29;;;;;;;;;;;13.90;99.90;;;;;;5082438;28;19916;-78
2021/09/04 04:16:55;;;;;;;;;;;13.90;99.90;;;;;;5088353;28;19919;-76
2021/09/04 04:19:21;;;;;;;;;;;13.90;99.90;;;;;;5087527;28;20299;-76
2021/09/04 04:21:46;;;;;;;;;;;13.90;99.90;;;;;;5072876;28;19942;-76
2021/09/04 04:24:12;;;;;;;;;;;13.90;99.90;;;;;;5089988;28;19912;-75
2021/09/04 04:26:37;;;;;;;;;;;13.90;99.90;;;;;;5092752;28;20253;-78
2021/09/04 04:29:03;;;;;;;;;;;13.90;99.90;;;;;;5069499;28;20317;-76
2021/09/04 04:31:29;;;;;;;;;;;13.90;99.90;;;;;;5083432;28;19927;-82
2021/09/04 04:33:54;;;;;;;;;;;13.90;99.90;;;;;;5087430;28;20014;-82
2021/09/04 04:36:20;;;;;;;;;;;13.90;99.90;;;;;;5086087;28;20311;-76
2021/09/04 04:38:45;;;;;;;;;;;13.90;99.90;;;;;;5064316;28;20295;-82
2021/09/04 04:41:11;;;;;;;;;;;13.90;99.90;;;;;;5087242;28;19919;-83
2021/09/04 04:43:37;;;;;;;;;;;13.90;99.90;;;;;;5083635;28;19926;-75
2021/09/04 04:46:02;;;;;;;;;;;14.00;99.90;;;;;;5083855;28;19922;-75
2021/09/04 04:48:28;;;;;;;;;;;14.00;99.90;;;;;;5087290;28;19919;-74
2021/09/04 04:50:53;;;;;;;;;;;13.90;99.90;;;;;;5087120;28;19916;-75
2021/09/04 04:53:19;;;;;;;;;;;13.90;99.90;;;;;;5074705;28;19919;-84
2021/09/04 04:55:45;;;;;;;;;;;13.90;99.90;;;;;;5083061;28;19916;-82
2021/09/04 04:58:10;;;;;;;;;;;13.90;99.90;;;;;;5072536;28;19912;-80
2021/09/04 05:00:36;;;;;;;;;;;13.90;99.90;;;;;;5082797;28;19924;-77
2021/09/04 05:03:03;;;;;;;;;;;13.90;99.90;;;;;;5079814;28;19912;-79
2021/09/04 05:05:29;;;;;;;;;;;13.80;99.90;;;;;;5090157;28;19912;-77
2021/09/04 05:07:54;;;;;;;;;;;13.80;99.90;;;;;;5088399;28;19994;-78
2021/09/04 05:10:20;;;;;;;;;;;13.90;99.90;;;;;;5080188;28;20007;-80
2021/09/04 05:12:45;;;;;;;;;;;13.80;99.90;;;;;;5080383;28;19928;-75
2021/09/04 05:15:11;;;;;;;;;;;13.80;99.90;;;;;;5064523;28;19912;-76
2021/09/04 05:17:37;;;;;;;;;;;13.80;99.90;;;;;;5085030;28;19942;-75
2021/09/04 05:20:02;;;;;;;;;;;13.80;99.90;;;;;;5084841;28;19919;-81
2021/09/04 05:22:28;;;;;;;;;;;13.80;99.90;;;;;;5084687;28;19919;-75
2021/09/04 05:24:54;;;;;;;;;;;13.80;99.90;;;;;;5086055;28;20011;-78
2021/09/04 05:27:19;;;;;;;;;;;13.70;99.90;;;;;;5068197;28;19995;-82
2021/09/04 05:29:45;;;;;;;;;;;13.70;99.90;;;;;;5085682;28;20322;-77
2021/09/04 05:32:10;;;;;;;;;;;13.70;99.90;;;;;;5083222;28;19963;-75
2021/09/04 05:34:36;;;;;;;;;;;13.70;99.90;;;;;;5071839;28;19912;-81
2021/09/04 05:37:01;;;;;;;;;;;13.70;99.90;;;;;;5093362;28;20054;-77
2021/09/04 05:39:27;;;;;;;;;;;13.70;99.90;;;;;;5075513;28;20223;-75
2021/09/04 05:41:52;;;;;;;;;;;13.80;99.90;;;;;;5090352;28;19947;-75
2021/09/04 05:44:18;;;;;;;;;;;13.80;99.90;;;;;;5091570;28;19912;-75
2021/09/04 05:46:44;;;;;;;;;;;13.80;99.90;;;;;;5075722;28;20246;-75
2021/09/04 05:49:09;;;;;;;;;;;13.80;99.90;;;;;;5089839;28;19921;-75
2021/09/04 05:51:35;;;;;;;;;;;13.90;99.90;;;;;;5089264;28;19920;-78
2021/09/04 05:54:00;;;;;;;;;;;13.90;99.90;;;;;;5073510;28;19922;-75
2021/09/04 05:56:26;;;;;;;;;;;13.90;99.90;;;;;;5094039;28;20199;-76
2021/09/04 05:58:52;;;;;;;;;;;13.90;99.90;;;;;;5091211;28;19919;-75
2021/09/04 06:01:17;;;;;;;;;;;13.90;99.90;;;;;;5090638;28;20195;-82
2021/09/04 06:03:43;;;;;;;;;;;14.00;99.90;;;;;;5086388;28;19927;-75
2021/09/04 06:06:08;;;;;;;;;;;14.00;99.90;;;;;;5088793;28;19916;-81
2021/09/04 06:08:34;;;;;;;;;;;14.00;99.90;;;;;;5088852;28;19965;-75
2021/09/04 06:11:00;;;;;;;;;;;14.00;99.90;;;;;;5094790;28;20361;-78
2021/09/04 06:13:25;;;;;;;;;;;14.00;99.90;;;;;;5075843;28;19912;-76
2021/09/04 06:15:51;;;;;;;;;;;14.00;99.90;;;;;;5093591;28;19912;-84
2021/09/04 06:18:16;;;;;;;;;;;14.00;99.90;;;;;;5093887;28;19916;-75
2021/09/04 06:20:42;;;;;;;;;;;14.00;99.90;;;;;;5079141;28;19938;-75
2021/09/04 06:23:07;;;;;;;;;;;14.10;99.90;;;;;;5097493;28;19912;-76
2021/09/04 06:25:34;;;;;;;;;;;14.10;99.90;;;;;;5097415;28;19916;-77
2021/09/04 06:28:00;;;;;;;;;;;14.10;99.90;;;;;;5076750;28;19978;-75
2021/09/04 06:30:25;;;;;;;;;;;14.10;99.90;;;;;;5096418;28;20335;-82
2021/09/04 06:32:51;;;;;;;;;;;14.10;99.90;;;;;;5079505;28;20303;-76
2021/09/04 06:35:16;;;;;;;;;;;14.10;99.90;;;;;;5079179;28;19919;-80
2021/09/04 06:37:42;;;;;;;;;;;14.10;99.90;;;;;;5096093;28;20000;-84
2021/09/04 06:40:08;;;;;;;;;;;14.10;99.90;;;;;;5097319;28;20325;-76
2021/09/04 06:42:33;;;;;;;;;;;14.10;99.90;;;;;;5096366;28;19920;-76
2021/09/04 06:44:59;;;;;;;;;;;14.10;99.90;;;;;;5096478;28;19924;-76
2021/09/04 06:47:24;;;;;;;;;;;14.10;99.90;;;;;;5086966;28;19920;-79
2021/09/04 06:49:50;;;;;;;;;;;14.10;99.90;;;;;;5089052;28;19912;-79
2021/09/04 06:52:15;;;;;;;;;;;14.20;99.90;;;;;;5093324;28;19920;-80
2021/09/04 06:54:41;;;;;;;;;;;14.20;99.90;;;;;;5071386;28;19951;-82
2021/09/04 06:57:07;;;;;;;;;;;14.20;99.90;;;;;;5090064;28;19923;-77
2021/09/04 06:59:32;;;;;;;;;;;14.20;99.90;;;;;;5065398;28;19982;-80
2021/09/04 07:01:58;;;;;;;;;;;14.30;99.90;;;;;;5054650;28;19932;-79
2021/09/04 07:04:23;;;;;;;;;;;14.30;99.90;;;;;;5053997;28;20285;-78
2021/09/04 07:06:49;;;;;;;;;;;14.30;99.90;;;;;;5051191;28;19924;-79
2021/09/04 07:09:15;;;;;;;;;;;14.30;99.90;;;;;;5052440;28;19913;-75
2021/09/04 07:11:41;;;;;;;;;;;14.40;99.90;;;;;;5055480;28;20328;-80
2021/09/04 07:14:06;;;;;;;;;;;14.40;99.90;;;;;;5054833;28;19928;-74
2021/09/04 07:16:32;;;;;;;;;;;14.50;99.90;;;;;;5053213;28;19913;-80
2021/09/04 07:18:57;;;;;;;;;;;14.50;99.90;;;;;;5048738;28;20007;-76
2021/09/04 07:21:23;;;;;;;;;;;14.60;99.90;;;;;;5055053;28;20101;-75
2021/09/04 07:23:48;;;;;;;;;;;14.60;99.90;;;;;;5054971;28;19921;-82
2021/09/04 07:26:14;;;;;;;;;;;14.60;99.90;;;;;;5050477;28;20004;-80
2021/09/04 07:28:40;;;;;;;;;;;14.80;99.90;;;;;;5050215;28;19913;-75
2021/09/04 07:31:05;;;;;;;;;;;14.90;99.90;;;;;;5051787;28;20043;-75
2021/09/04 07:33:31;;;;;;;;;;;15.00;99.90;;;;;;5051682;28;20338;-81
2021/09/04 07:35:56;;;;;;;;;;;15.00;99.90;;;;;;5064489;28;19924;-75
2021/09/04 07:38:24;;;;;;;;;;;15.00;99.90;;;;;;5053156;28;19913;-78
2021/09/04 07:40:50;;;;;;;;;;;15.00;99.90;;;;;;5052011;28;19975;-81
2021/09/04 07:43:15;;;;;;;;;;;14.90;99.90;;;;;;5052448;28;19916;-77
2021/09/04 07:45:41;;;;;;;;;;;14.90;99.90;;;;;;5051956;28;19912;-81
2021/09/04 07:48:07;;;;;;;;;;;14.90;99.90;;;;;;5052036;28;19913;-80
2021/09/04 07:50:33;;;;;;;;;;;14.80;99.90;;;;;;5048680;28;19912;-80
2021/09/04 07:52:59;;;;;;;;;;;14.80;99.90;;;;;;5047896;28;20048;-80
2021/09/04 07:55:24;;;;;;;;;;;14.70;99.90;;;;;;5052490;28;20004;-79
2021/09/04 07:57:50;;;;;;;;;;;14.80;99.90;;;;;;5055038;28;19909;-79
2021/09/04 08:00:16;;;;;;;;;;;14.80;99.90;;;;;;5066497;28;20331;-75
2021/09/04 08:02:42;;;;;;;;;;;14.80;99.90;;;;;;5073889;28;19909;-76
2021/09/04 08:05:08;;;;;;;;;;;14.90;99.90;;;;;;5073591;28;19968;-77
2021/09/04 08:07:33;;;;;;;;;;;15.00;99.90;;;;;;5074840;28;19912;-76
2021/09/04 08:09:59;;;;;;;;;;;15.00;99.90;;;;;;5066030;28;19923;-76
2021/09/04 08:12:24;;;;;;;;;;;15.10;99.90;;;;;;5074841;28;19952;-78
2021/09/04 08:14:50;;;;;;;;;;;15.30;99.90;;;;;;5074522;28;20334;-75
2021/09/04 08:17:16;;;;;;;;;;;15.50;99.90;;;;;;5074492;28;20367;-75
2021/09/04 08:19:42;;;;;;;;;;;15.50;99.90;;;;;;5075176;28;19917;-75
2021/09/04 08:22:07;;;;;;;;;;;15.50;99.90;;;;;;5074331;28;19954;-75
2021/09/04 08:24:33;;;;;;;;;;;15.50;99.90;;;;;;5088908;28;19923;-75
2021/09/04 08:26:59;;;;;;;;;;;15.50;99.90;;;;;;5061786;28;19921;-81
2021/09/04 08:29:25;;;;;;;;;;;15.40;99.90;;;;;;5061611;28;19921;-80
2021/09/04 08:31:50;;;;;;;;;;;15.40;99.90;;;;;;5065433;28;20496;-78
2021/09/04 08:34:16;;;;;;;;;;;15.40;99.90;;;;;;5068566;28;19927;-79
2021/09/04 08:36:42;;;;;;;;;;;15.50;99.90;;;;;;5069290;28;19913;-82
2021/09/04 08:39:08;;;;;;;;;;;15.50;99.90;;;;;;5073131;28;20219;-79
2021/09/04 08:41:35;;;;;;;;;;;15.50;99.90;;;;;;5068776;28;19951;-80
2021/09/04 08:44:01;;;;;;;;;;;15.50;99.90;;;;;;5073026;28;20327;-81
2021/09/04 08:46:30;;;;;;;;;;;15.40;99.90;;;;;;5073357;28;20009;-82
2021/09/04 08:48:55;;;;;;;;;;;15.30;99.90;;;;;;5067409;28;20042;-81
2021/09/04 08:51:21;;;;;;;;;;;15.30;99.90;;;;;;5071814;28;20003;-82
2021/09/04 08:53:47;;;;;;;;;;;15.30;99.90;;;;;;5066344;28;19921;-81
2021/09/04 08:59:15;;;;;;;;;;;15.30;99.90;;;;;;5069853;28;19927;-82
2021/09/04 09:01:44;;;;;;;;;;;15.40;99.90;;;;;;5084137;28;19979;-77
2021/09/04 09:04:13;;;;;;;;;;;15.40;99.90;;;;;;5068556;28;19935;-82
2021/09/04 09:06:39;;;;;;;;;;;15.60;99.90;;;;;;5085086;28;20027;-76
2021/09/04 09:09:23;;;;;;;;;;;15.70;99.90;;;;;;5086859;28;20010;-82
2021/09/04 09:11:52;;;;;;;;;;;15.80;99.90;;;;;;5084114;28;19943;-81
2021/09/04 09:14:18;;;;;;;;;;;15.80;99.90;;;;;;5071097;28;19964;-82
2021/09/04 09:16:49;;;;;;;;;;;15.80;99.90;;;;;;5085177;28;19955;-81
2021/09/04 09:19:14;;;;;;;;;;;15.80;99.90;;;;;;5067868;28;19916;-79
2021/09/04 09:21:40;;;;;;;;;;;15.90;99.90;;;;;;5088590;28;19974;-79
2021/09/04 09:24:16;;;;;;;;;;;15.90;99.90;;;;;;5071242;28;20319;-82
2021/09/04 09:26:52;;;;;;;;;;;15.90;99.90;;;;;;5071422;28;20013;-80
2021/09/04 09:29:19;;;;;;;;;;;15.90;99.90;;;;;;5085597;28;19913;-82
2021/09/04 09:31:45;;;;;;;;;;;15.90;99.90;;;;;;5085427;28;19956;-78
2021/09/04 09:34:12;;;;;;;;;;;15.90;99.90;;;;;;5066742;28;20384;-82
2021/09/04 09:36:51;;;;;;;;;;;16.00;99.90;;;;;;5088714;28;19916;-78
2021/09/04 09:39:16;;;;;;;;;;;16.10;99.90;;;;;;5089282;28;19984;-78
2021/09/04 09:41:49;;;;;;;;;;;16.20;99.90;;;;;;5088774;28;19924;-81
2021/09/04 09:44:22;;;;;;;;;;;16.20;99.90;;;;;;5083895;28;19912;-82
2021/09/04 09:46:49;;;;;;;;;;;16.30;99.90;;;;;;5066272;28;19951;-82
2021/09/04 09:49:15;;;;;;;;;;;16.50;99.90;;;;;;5070023;28;19912;-81
2021/09/04 09:51:41;;;;;;;;;;;16.60;99.90;;;;;;5071398;28;19938;-78
2021/09/04 09:54:07;;;;;;;;;;;16.50;99.90;;;;;;5068593;28;19919;-80
2021/09/04 09:56:33;;;;;;;;;;;16.50;99.90;;;;;;5089565;28;20023;-82
2021/09/04 09:58:58;;;;;;;;;;;16.50;99.90;;;;;;5083141;28;20342;-75
2021/09/04 10:01:24;;;;;;;;;;;16.50;99.90;;;;;;5086116;28;20019;-78
2021/09/04 10:03:51;;;;;;;;;;;16.60;99.90;;;;;;5086587;28;19959;-82
2021/09/04 10:06:16;;;;;;;;;;;16.80;99.90;;;;;;5085623;28;19943;-78
2021/09/04 10:08:42;;;;;;;;;;;16.80;99.90;;;;;;5068204;28;19975;-78
2021/09/04 10:11:07;;;;;;;;;;;17.00;99.90;;;;;;5084636;28;19919;-79
2021/09/04 10:13:34;;;;;;;;;;;17.10;99.90;;;;;;5071240;28;19923;-75
2021/09/04 10:15:59;;;;;;;;;;;17.10;99.90;;;;;;5086198;28;19920;-80
2021/09/04 10:18:26;;;;;;;;;;;17.10;99.90;;;;;;5084166;28;19917;-81
2021/09/04 10:21:13;;;;;;;;;;;17.10;99.90;;;;;;5089582;28;20038;-75
2021/09/04 10:23:49;;;;;;;;;;;17.10;99.90;;;;;;5089903;28;19971;-76
2021/09/04 10:26:33;;;;;;;;;;;17.20;99.90;;;;;;5090363;28;19985;-80
2021/09/04 10:29:12;;;;;;;;;;;17.20;99.90;;;;;;5074417;28;19950;-81
2021/09/04 10:31:54;;;;;;;;;;;17.30;99.90;;;;;;5088984;28;19927;-81
2021/09/04 10:34:25;;;;;;;;;;;17.40;99.90;;;;;;5072805;28;19912;-78
2021/09/04 10:37:04;;;;;;;;;;;17.40;99.90;;;;;;5068443;28;19919;-76
2021/09/04 10:39:50;;;;;;;;;;;17.50;99.90;;;;;;5088722;28;19962;-76
2021/09/04 10:42:17;;;;;;;;;;;17.50;99.90;;;;;;5089452;28;19919;-76
2021/09/04 10:44:44;;;;;;;;;;;17.60;99.90;;;;;;5087161;28;19916;-80
2021/09/04 10:47:10;;;;;;;;;;;17.50;99.90;;;;;;5072350;28;20283;-82
2021/09/04 10:49:56;;;;;;;;;;;17.60;99.90;;;;;;5089889;28;19999;-76
2021/09/04 10:52:45;;;;;;;;;;;17.60;99.90;;;;;;5071735;28;19927;-80
2021/09/04 10:55:20;;;;;;;;;;;17.60;99.90;;;;;;5075384;28;20312;-81
2021/09/04 10:57:46;;;;;;;;;;;17.60;99.90;;;;;;5071241;28;20249;-80
2021/09/04 11:00:19;;;;;;;;;;;17.60;99.90;;;;;;5072650;28;19923;-82
2021/09/04 11:02:45;;;;;;;;;;;17.60;99.90;;;;;;5071651;28;19954;-82
2021/09/04 11:05:26;;;;;;;;;;;17.60;99.90;;;;;;5069937;28;20398;-83
2021/09/04 11:08:02;;;;;;;;;;;17.70;99.90;;;;;;5072769;28;19975;-80
2021/09/04 11:10:28;;;;;;;;;;;17.70;99.90;;;;;;5076601;28;19916;-78
2021/09/04 11:13:05;;;;;;;;;;;17.80;99.90;;;;;;5075621;28;20285;-78
2021/09/04 11:15:32;;;;;;;;;;;17.90;99.90;;;;;;5072373;28;19913;-76
2021/09/04 11:17:57;;;;;;;;;;;18.00;99.90;;;;;;5071079;28;19919;-83
2021/09/04 11:20:23;;;;;;;;;;;18.10;99.90;;;;;;5090195;28;19916;-83
2021/09/04 11:22:49;;;;;;;;;;;18.10;99.90;;;;;;5092800;28;19943;-83
2021/09/04 11:25:15;;;;;;;;;;;18.00;99.90;;;;;;5095927;28;20003;-83
2021/09/04 11:27:44;;;;;;;;;;;18.00;99.90;;;;;;5095695;28;19947;-84
2021/09/04 11:30:10;;;;;;;;;;;18.00;99.90;;;;;;5093877;28;19951;-82
2021/09/04 11:32:36;;;;;;;;;;;18.10;99.90;;;;;;5095048;28;19967;-83
2021/09/04 11:35:03;;;;;;;;;;;18.20;99.90;;;;;;5096519;28;19919;-83
2021/09/04 11:37:48;;;;;;;;;;;18.30;99.90;;;;;;5075692;28;20319;-83
2021/09/04 11:40:15;;;;;;;;;;;18.30;99.90;;;;;;5094301;28;19934;-83
2021/09/04 11:42:42;;;;;;;;;;;18.40;99.90;;;;;;5094556;28;19908;-82
2021/09/04 11:45:11;;;;;;;;;;;18.40;99.90;;;;;;5074479;28;19918;-78
2021/09/04 11:47:38;;;;;;;;;;;18.50;99.90;;;;;;5083662;28;19920;-81
2021/09/04 11:50:06;;;;;;;;;;;18.40;99.90;;;;;;5087791;28;20627;-76
2021/09/04 11:52:34;;;;;;;;;;;18.40;99.90;;;;;;5069163;28;20218;-84
2021/09/04 11:55:08;;;;;;;;;;;18.30;99.90;;;;;;5066758;28;19920;-83
2021/09/04 11:57:35;;;;;;;;;;;18.30;99.90;;;;;;5086934;28;20011;-82
2021/09/04 12:00:01;;;;;;;;;;;18.40;99.90;;;;;;5091147;28;20244;-83
2021/09/04 12:02:27;;;;;;;;;;;18.40;99.90;;;;;;5067806;28;19913;-84
2021/09/04 12:04:53;;;;;;;;;;;18.50;99.90;;;;;;5087888;28;19912;-76
2021/09/04 12:07:18;;;;;;;;;;;18.60;99.90;;;;;;5070924;28;20006;-82
2021/09/04 12:09:45;;;;;;;;;;;18.60;99.90;;;;;;5089059;28;19916;-82
2021/09/04 12:12:10;;;;;;;;;;;18.50;99.90;;;;;;5089049;28;20080;-83
2021/09/04 12:14:36;;;;;;;;;;;18.50;99.90;;;;;;5069813;28;21444;-81
2021/09/04 12:17:01;;;;;;;;;;;18.60;99.90;;;;;;5089783;28;19919;-82
2021/09/04 12:19:36;;;;;;;;;;;18.60;99.90;;;;;;5090535;28;20307;-82
2021/09/04 12:22:01;;;;;;;;;;;18.70;99.90;;;;;;5071367;28;19922;-82
2021/09/04 12:24:31;;;;;;;;;;;18.60;99.90;;;;;;5070401;28;20003;-82
2021/09/04 12:26:57;;;;;;;;;;;18.60;99.90;;;;;;5067326;28;19994;-82
2021/09/04 12:29:27;;;;;;;;;;;18.70;99.90;;;;;;5084906;28;19911;-76
2021/09/04 12:31:52;;;;;;;;;;;18.80;99.90;;;;;;5088547;28;20363;-83
2021/09/04 12:34:22;;;;;;;;;;;18.70;99.90;;;;;;5085419;28;20010;-82
2021/09/04 12:36:48;;;;;;;;;;;18.70;99.90;;;;;;5070174;28;19919;-82
2021/09/04 12:39:21;;;;;;;;;;;18.80;99.90;;;;;;5068648;28;19920;-79
2021/09/04 12:41:47;;;;;;;;;;;18.80;99.90;;;;;;5069321;28;20307;-83
2021/09/04 12:44:14;;;;;;;;;;;18.80;99.90;;;;;;5068333;28;19912;-82
2021/09/04 12:46:46;;;;;;;;;;;18.90;99.90;;;;;;5088798;28;19920;-83
2021/09/04 12:49:28;;;;;;;;;;;18.90;99.90;;;;;;5070150;28;20711;-83
2021/09/04 12:52:02;;;;;;;;;;;19.00;99.90;;;;;;5074520;28;19920;-76
2021/09/04 12:54:29;;;;;;;;;;;19.00;99.90;;;;;;5072281;28;19916;-84
2021/09/04 12:57:02;;;;;;;;;;;19.00;99.90;;;;;;5070163;28;19922;-82
2021/09/04 12:59:28;;;;;;;;;;;19.00;99.90;;;;;;5066743;28;19913;-82
2021/09/04 13:01:53;;;;;;;;;;;19.00;99.90;;;;;;5073963;28;19940;-75
2021/09/04 13:04:19;;;;;;;;;;;19.00;99.90;;;;;;5072681;28;19959;-81
2021/09/04 13:06:45;;;;;;;;;;;19.10;99.90;;;;;;5073796;28;19913;-78
2021/09/04 13:09:10;;;;;;;;;;;19.20;99.90;;;;;;5067283;28;20034;-83
2021/09/04 13:11:36;;;;;;;;;;;19.10;99.90;;;;;;5073774;28;19974;-82
2021/09/04 13:14:01;;;;;;;;;;;19.20;99.90;;;;;;5073843;28;19916;-82
2021/09/04 13:16:28;;;;;;;;;;;19.10;99.90;;;;;;5070139;28;19955;-82
2021/09/04 13:18:54;;;;;;;;;;;19.20;99.90;;;;;;5067966;28;20027;-79
2021/09/04 13:21:19;;;;;;;;;;;19.20;99.90;;;;;;5072797;28;20022;-80
2021/09/04 13:23:45;;;;;;;;;;;19.30;99.90;;;;;;5071885;28;19959;-76
2021/09/04 13:26:10;;;;;;;;;;;19.30;99.90;;;;;;5069772;28;19930;-82
2021/09/04 13:28:36;;;;;;;;;;;19.30;99.90;;;;;;5071353;28;19912;-82
2021/09/04 13:31:01;;;;;;;;;;;19.30;99.90;;;;;;5073373;28;20291;-83
2021/09/04 13:33:28;;;;;;;;;;;19.40;99.90;;;;;;5072351;28;19928;-76
2021/09/04 13:35:54;;;;;;;;;;;19.50;99.90;;;;;;5063834;28;19927;-81
2021/09/04 13:38:20;;;;;;;;;;;19.50;99.90;;;;;;5073355;28;19913;-75
2021/09/04 13:40:46;;;;;;;;;;;19.50;99.90;;;;;;5071241;28;19912;-80
2021/09/04 13:43:11;;;;;;;;;;;19.60;99.90;;;;;;5071518;28;19919;-82
2021/09/04 13:45:37;;;;;;;;;;;19.50;99.90;;;;;;5071972;28;19913;-81
2021/09/04 13:48:03;;;;;;;;;;;19.50;99.90;;;;;;5067854;28;19920;-78
2021/09/04 13:50:28;;;;;;;;;;;19.60;99.90;;;;;;5068500;28;19939;-76
2021/09/04 13:52:54;;;;;;;;;;;19.60;99.90;;;;;;5068395;28;19924;-78
2021/09/04 13:55:20;;;;;;;;;;;19.60;99.90;;;;;;5073032;28;20318;-81
2021/09/04 13:57:47;;;;;;;;;;;19.60;99.90;;;;;;5070098;28;20001;-81
2021/09/04 14:00:13;;;;;;;;;;;19.60;99.90;;;;;;5070356;28;19916;-76
2021/09/04 14:02:39;;;;;;;;;;;19.60;99.90;;;;;;5076656;28;19960;-81
2021/09/04 14:05:06;;;;;;;;;;;19.60;99.90;;;;;;5074768;28;20001;-81
2021/09/04 14:07:31;;;;;;;;;;;19.60;99.90;;;;;;5069021;28;20386;-82
2021/09/04 14:09:57;;;;;;;;;;;19.60;99.90;;;;;;5075722;28;19999;-77
2021/09/04 14:12:22;;;;;;;;;;;19.60;99.90;;;;;;5076081;28;20292;-82
2021/09/04 14:14:48;;;;;;;;;;;19.60;99.90;;;;;;5076521;28;19919;-76
2021/09/04 14:17:13;;;;;;;;;;;19.60;99.90;;;;;;5075449;28;20007;-80